Time;durP1;ratioP1;P1;durP2;ratioP2;P2;SDS_P1;SDS_P2;PMS_P1;PMS_P2;Temp;Humidity;BMP_temperature;BMP_pressure;BME280_temperature;BME280_humidity;BME280_pressure;Samples;Min_cycle;Max_cycle;Signal;HPM_P1;HPM_P2
2022/08/15 00:00:36;;;;;;;0.35;0.28;;;;;;;;;;5048315;28;20072;-76
2022/08/15 00:03:03;;;;;;;0.20;0.20;;;;;;;;;;5050307;28;20137;-79
2022/08/15 00:05:31;;;;;;;0.30;0.30;;;;;;;;;;5035719;28;20163;-74
2022/08/15 00:07:58;;;;;;;0.10;0.10;;;;;;;;;;5037234;28;20086;-77
2022/08/15 00:10:24;;;;;;;0.30;0.30;;;;;;;;;;5051623;28;20449;-78
2022/08/15 00:12:51;;;;;;;0.20;0.20;;;;;;;;;;5036135;28;20436;-75
2022/08/15 00:15:18;;;;;;;0.10;0.10;;;;;;;;;;5051415;28;20041;-77
2022/08/15 00:17:44;;;;;;;0.22;0.22;;;;;;;;;;5054243;28;20869;-79
2022/08/15 00:20:12;;;;;;;0.10;0.10;;;;;;;;;;5053046;28;20382;-78
2022/08/15 00:22:49;;;;;;;0.20;0.20;;;;;;;;;;5052277;28;20429;-74
2022/08/15 00:25:16;;;;;;;0.20;0.20;;;;;;;;;;5033804;28;20037;-78
2022/08/15 00:27:42;;;;;;;0.20;0.20;;;;;;;;;;5065026;28;20051;-79
2022/08/15 00:30:09;;;;;;;0.45;0.43;;;;;;;;;;5069439;28;20082;-77
2022/08/15 00:32:36;;;;;;;0.17;0.17;;;;;;;;;;5059258;28;20693;-79
2022/08/15 00:35:04;;;;;;;0.22;0.22;;;;;;;;;;5060905;28;20048;-78
2022/08/15 00:37:30;;;;;;;0.22;0.22;;;;;;;;;;5060928;28;20079;-77
2022/08/15 00:39:57;;;;;;;0.15;0.15;;;;;;;;;;5069460;28;20094;-81
2022/08/15 00:42:23;;;;;;;0.20;0.20;;;;;;;;;;5055851;28;20049;-80
2022/08/15 00:44:49;;;;;;;0.10;0.10;;;;;;;;;;5070021;28;20094;-77
2022/08/15 00:47:17;;;;;;;0.10;0.10;;;;;;;;;;5053748;28;20037;-73
2022/08/15 00:49:43;;;;;;;0.15;0.15;;;;;;;;;;5053417;28;20037;-76
2022/08/15 00:52:14;;;;;;;0.45;0.30;;;;;;;;;;5059995;28;20498;-77
2022/08/15 00:54:50;;;;;;;0.20;0.20;;;;;;;;;;5034317;28;20052;-76
2022/08/15 00:57:28;;;;;;;0.10;0.10;;;;;;;;;;5052040;28;20098;-76
2022/08/15 00:59:57;;;;;;;0.25;0.25;;;;;;;;;;5054010;28;20048;-78
2022/08/15 01:02:25;;;;;;;0.20;0.20;;;;;;;;;;5053820;28;20045;-81
2022/08/15 01:04:51;;;;;;;0.25;0.25;;;;;;;;;;5053891;28;20044;-76
2022/08/15 01:07:19;;;;;;;0.20;0.20;;;;;;;;;;5053660;28;20049;-76
2022/08/15 01:09:45;;;;;;;0.10;0.10;;;;;;;;;;5050329;28;20041;-78
2022/08/15 01:12:13;;;;;;;0.20;0.20;;;;;;;;;;5035118;28;20044;-79
2022/08/15 01:14:41;;;;;;;0.10;0.10;;;;;;;;;;5053222;28;20087;-78
2022/08/15 01:17:08;;;;;;;0.20;0.20;;;;;;;;;;5052320;28;20078;-79
2022/08/15 01:19:37;;;;;;;0.28;0.28;;;;;;;;;;5052976;28;20045;-77
2022/08/15 01:22:13;;;;;;;0.25;0.25;;;;;;;;;;5033481;28;20049;-77
2022/08/15 01:24:58;;;;;;;0.40;0.40;;;;;;;;;;5031109;28;20045;-77
2022/08/15 01:27:29;;;;;;;0.22;0.22;;;;;;;;;;5044695;28;20051;-77
2022/08/15 01:29:55;;;;;;;0.30;0.30;;;;;;;;;;5054250;28;20576;-76
2022/08/15 01:32:22;;;;;;;0.30;0.30;;;;;;;;;;5034986;28;20037;-76
2022/08/15 01:34:48;;;;;;;0.20;0.20;;;;;;;;;;5052794;28;20049;-76
2022/08/15 01:37:14;;;;;;;0.13;0.13;;;;;;;;;;5055801;28;20045;-81
2022/08/15 01:39:51;;;;;;;0.20;0.20;;;;;;;;;;5042523;28;20051;-80
2022/08/15 01:42:29;;;;;;;1.17;0.30;;;;;;;;;;5035602;28;20045;-79
2022/08/15 01:44:57;;;;;;;0.68;0.68;;;;;;;;;;5051535;28;20040;-77
2022/08/15 01:47:23;;;;;;;0.20;0.20;;;;;;;;;;5048146;28;20044;-80
2022/08/15 01:49:52;;;;;;;0.20;0.20;;;;;;;;;;5050531;28;20525;-81
2022/08/15 01:52:19;;;;;;;0.30;0.30;;;;;;;;;;5050553;28;20051;-76
2022/08/15 01:54:47;;;;;;;0.20;0.20;;;;;;;;;;5032578;28;20055;-79
2022/08/15 01:57:13;;;;;;;0.30;0.30;;;;;;;;;;5050294;28;20056;-79
2022/08/15 01:59:40;;;;;;;0.20;0.20;;;;;;;;;;5048715;28;20140;-78
2022/08/15 02:02:07;;;;;;;0.22;0.22;;;;;;;;;;5051021;28;20045;-79
2022/08/15 02:04:35;;;;;;;0.30;0.30;;;;;;;;;;5054046;28;20041;-77
2022/08/15 02:07:04;;;;;;;0.10;0.10;;;;;;;;;;5040560;28;20509;-77
2022/08/15 02:09:30;;;;;;;0.10;0.10;;;;;;;;;;5049062;28;20048;-76
2022/08/15 02:11:59;;;;;;;0.13;0.13;;;;;;;;;;5048812;28;20375;-78
2022/08/15 02:14:25;;;;;;;0.20;0.20;;;;;;;;;;5052377;28;20055;-77
2022/08/15 02:16:51;;;;;;;0.15;0.15;;;;;;;;;;5050185;28;20425;-77
2022/08/15 02:19:18;;;;;;;0.20;0.20;;;;;;;;;;5067183;28;20505;-80
2022/08/15 02:21:45;;;;;;;0.20;0.20;;;;;;;;;;5034214;28;20045;-79
2022/08/15 02:24:14;;;;;;;0.17;0.17;;;;;;;;;;5048000;28;20041;-78
2022/08/15 02:26:40;;;;;;;0.13;0.13;;;;;;;;;;5045135;28;20433;-78
2022/08/15 02:29:06;;;;;;;0.10;0.10;;;;;;;;;;5041300;28;20040;-76
2022/08/15 02:31:33;;;;;;;0.25;0.25;;;;;;;;;;5049317;28;20048;-80
2022/08/15 02:34:00;;;;;;;0.20;0.20;;;;;;;;;;5032090;28;20525;-80
2022/08/15 02:36:28;;;;;;;0.20;0.20;;;;;;;;;;5051265;28;20041;-78
2022/08/15 02:38:58;;;;;;;0.15;0.15;;;;;;;;;;5061839;28;20076;-80
2022/08/15 02:41:48;;;;;;;0.10;0.10;;;;;;;;;;5048630;28;20090;-77
2022/08/15 02:44:14;;;;;;;0.10;0.10;;;;;;;;;;5057621;28;20080;-77
2022/08/15 02:46:40;;;;;;;0.82;0.77;;;;;;;;;;5054435;28;20390;-77
2022/08/15 02:49:10;;;;;;;0.20;0.20;;;;;;;;;;5047923;28;20036;-77
2022/08/15 02:51:37;;;;;;;0.30;0.30;;;;;;;;;;5048158;28;20056;-77
2022/08/15 02:54:05;;;;;;;0.65;0.65;;;;;;;;;;5050281;28;20179;-80
2022/08/15 02:56:31;;;;;;;1.00;0.50;;;;;;;;;;5050383;28;20048;-78
2022/08/15 02:58:58;;;;;;;0.30;0.30;;;;;;;;;;5049676;28;20390;-79
2022/08/15 03:01:26;;;;;;;0.28;0.28;;;;;;;;;;5031339;28;20137;-77
2022/08/15 03:03:53;;;;;;;0.80;0.63;;;;;;;;;;5049495;28;20056;-77
2022/08/15 03:06:24;;;;;;;0.50;0.50;;;;;;;;;;5053465;28;20402;-81
2022/08/15 03:08:50;;;;;;;0.52;0.52;;;;;;;;;;5049047;28;20041;-81
2022/08/15 03:11:17;;;;;;;1.23;0.43;;;;;;;;;;5049045;28;20510;-78
2022/08/15 03:13:43;;;;;;;0.35;0.35;;;;;;;;;;5047876;28;20045;-78
2022/08/15 03:16:10;;;;;;;1.08;0.77;;;;;;;;;;5033326;28;20143;-77
2022/08/15 03:18:36;;;;;;;0.47;0.40;;;;;;;;;;5049508;28;20041;-76
2022/08/15 03:21:05;;;;;;;0.75;0.75;;;;;;;;;;5050000;28;20056;-79
2022/08/15 03:23:32;;;;;;;0.20;0.20;;;;;;;;;;5050109;28;20045;-77
2022/08/15 03:25:59;;;;;;;0.25;0.25;;;;;;;;;;5046768;28;20124;-78
2022/08/15 03:28:26;;;;;;;0.65;0.52;;;;;;;;;;5050329;28;20097;-77
2022/08/15 03:30:52;;;;;;;0.10;0.10;;;;;;;;;;5045104;28;21064;-75
2022/08/15 03:33:19;;;;;;;0.45;0.45;;;;;;;;;;5048728;28;20470;-77
2022/08/15 03:35:47;;;;;;;0.15;0.15;;;;;;;;;;5035433;28;20144;-77
2022/08/15 03:38:13;;;;;;;0.30;0.30;;;;;;;;;;5071463;28;20470;-79
2022/08/15 03:40:41;;;;;;;0.10;0.10;;;;;;;;;;5053220;28;20391;-75
2022/08/15 03:43:08;;;;;;;0.30;0.30;;;;;;;;;;5053132;28;20040;-75
2022/08/15 03:45:34;;;;;;;0.80;0.80;;;;;;;;;;5054659;28;20048;-79
2022/08/15 03:48:01;;;;;;;0.30;0.30;;;;;;;;;;5036371;28;20033;-74
2022/08/15 03:50:28;;;;;;;0.20;0.20;;;;;;;;;;5052072;28;20048;-75
2022/08/15 03:52:57;;;;;;;0.20;0.20;;;;;;;;;;5052920;28;20135;-78
2022/08/15 03:55:24;;;;;;;0.20;0.20;;;;;;;;;;5052424;28;20556;-78
2022/08/15 03:57:51;;;;;;;0.45;0.45;;;;;;;;;;5052230;28;20080;-75
2022/08/15 04:00:18;;;;;;;0.68;0.63;;;;;;;;;;5053547;28;20044;-76
2022/08/15 04:02:44;;;;;;;0.47;0.45;;;;;;;;;;5050420;28;20153;-77
2022/08/15 04:05:11;;;;;;;0.20;0.20;;;;;;;;;;5050810;28;20041;-76
2022/08/15 04:07:37;;;;;;;0.20;0.20;;;;;;;;;;5052517;28;20470;-74
2022/08/15 04:10:09;;;;;;;4.40;0.50;;;;;;;;;;5052595;28;20033;-80
2022/08/15 04:12:38;;;;;;;0.10;0.10;;;;;;;;;;5052360;28;20055;-76
2022/08/15 04:15:05;;;;;;;0.10;0.10;;;;;;;;;;5055911;28;20104;-75
2022/08/15 04:17:31;;;;;;;0.20;0.20;;;;;;;;;;5052115;28;20045;-78
2022/08/15 04:19:57;;;;;;;0.22;0.22;;;;;;;;;;5051124;28;20502;-75
2022/08/15 04:22:28;;;;;;;0.10;0.10;;;;;;;;;;5052493;28;20040;-77
2022/08/15 04:24:54;;;;;;;0.20;0.20;;;;;;;;;;5046477;28;20041;-76
2022/08/15 04:27:20;;;;;;;0.65;0.65;;;;;;;;;;5029972;28;20051;-80
2022/08/15 04:29:47;;;;;;;0.20;0.20;;;;;;;;;;5056270;28;20033;-76
2022/08/15 04:32:13;;;;;;;0.30;0.30;;;;;;;;;;5051057;28;20098;-78
2022/08/15 04:34:42;;;;;;;0.55;0.55;;;;;;;;;;5043373;28;20064;-79
2022/08/15 04:37:09;;;;;;;0.50;0.50;;;;;;;;;;5035536;28;20049;-75
2022/08/15 04:39:35;;;;;;;0.43;0.43;;;;;;;;;;5059020;28;20044;-78
2022/08/15 04:42:01;;;;;;;0.20;0.20;;;;;;;;;;5049132;28;20072;-76
2022/08/15 04:44:28;;;;;;;0.30;0.30;;;;;;;;;;5052684;28;20113;-76
2022/08/15 04:46:55;;;;;;;0.20;0.20;;;;;;;;;;5034038;28;20033;-76
2022/08/15 04:49:21;;;;;;;0.45;0.45;;;;;;;;;;5049477;28;20044;-76
2022/08/15 04:51:47;;;;;;;0.20;0.20;;;;;;;;;;5051407;28;20044;-76
2022/08/15 04:54:13;;;;;;;0.30;0.20;;;;;;;;;;5049021;28;20060;-77
2022/08/15 04:56:39;;;;;;;0.15;0.15;;;;;;;;;;5046089;28;20056;-80
2022/08/15 04:59:05;;;;;;;0.30;0.20;;;;;;;;;;5049733;28;20135;-75
2022/08/15 05:01:32;;;;;;;0.35;0.35;;;;;;;;;;5059454;28;20037;-77
2022/08/15 05:03:58;;;;;;;0.10;0.10;;;;;;;;;;5055835;28;20478;-74
2022/08/15 05:06:25;;;;;;;0.20;0.20;;;;;;;;;;5053234;28;20041;-78
2022/08/15 05:08:51;;;;;;;0.63;0.63;;;;;;;;;;5044444;28;20127;-76
2022/08/15 05:11:18;;;;;;;0.20;0.20;;;;;;;;;;5048243;28;20098;-78
2022/08/15 05:13:45;;;;;;;0.20;0.20;;;;;;;;;;5057009;28;20045;-77
2022/08/15 05:16:12;;;;;;;0.63;0.63;;;;;;;;;;5060883;28;20123;-77
2022/08/15 05:18:39;;;;;;;0.40;0.40;;;;;;;;;;5051811;28;20103;-76
2022/08/15 05:21:06;;;;;;;0.20;0.20;;;;;;;;;;5034687;28;20049;-77
2022/08/15 05:23:33;;;;;;;0.65;0.65;;;;;;;;;;5051610;28;20040;-78
2022/08/15 05:26:00;;;;;;;1.02;0.40;;;;;;;;;;5062601;28;20090;-77
2022/08/15 05:28:27;;;;;;;0.20;0.20;;;;;;;;;;5045814;28;20516;-75
2022/08/15 05:30:54;;;;;;;0.20;0.20;;;;;;;;;;5035854;28;20396;-78
2022/08/15 05:33:25;;;;;;;0.20;0.20;;;;;;;;;;5062501;28;20056;-77
2022/08/15 05:35:56;;;;;;;0.40;0.30;;;;;;;;;;5066668;28;20091;-78
2022/08/15 05:38:27;;;;;;;0.20;0.20;;;;;;;;;;5053171;28;20123;-78
2022/08/15 05:41:14;;;;;;;0.30;0.30;;;;;;;;;;5056511;28;20052;-79
2022/08/15 05:43:49;;;;;;;0.20;0.20;;;;;;;;;;5052945;28;20088;-78
2022/08/15 05:46:27;;;;;;;0.10;0.10;;;;;;;;;;5050036;28;20041;-75
2022/08/15 05:49:09;;;;;;;0.10;0.10;;;;;;;;;;5050087;28;20136;-80
2022/08/15 05:51:35;;;;;;;0.20;0.20;;;;;;;;;;5059012;28;20053;-75
2022/08/15 05:54:21;;;;;;;0.20;0.20;;;;;;;;;;5050479;28;20066;-80
2022/08/15 05:56:58;;;;;;;0.38;0.38;;;;;;;;;;5009455;28;20055;-78
2022/08/15 05:59:31;;;;;;;0.17;0.17;;;;;;;;;;5042578;28;20137;-76
2022/08/15 06:02:00;;;;;;;0.20;0.20;;;;;;;;;;5052355;28;20437;-78
2022/08/15 06:04:34;;;;;;;0.20;0.20;;;;;;;;;;5050409;28;20048;-76
2022/08/15 06:07:03;;;;;;;0.20;0.20;;;;;;;;;;5049277;28;20496;-80
2022/08/15 06:09:35;;;;;;;0.20;0.20;;;;;;;;;;5055698;28;20041;-76
2022/08/15 06:12:04;;;;;;;0.28;0.28;;;;;;;;;;5048424;28;20482;-77
2022/08/15 06:14:42;;;;;;;0.28;0.25;;;;;;;;;;5048894;28;20397;-76
2022/08/15 06:17:11;;;;;;;0.28;0.28;;;;;;;;;;5046498;28;20582;-76
2022/08/15 06:19:40;;;;;;;0.20;0.20;;;;;;;;;;5056219;28;20040;-76
2022/08/15 06:22:19;;;;;;;0.20;0.20;;;;;;;;;;5047184;28;20120;-76
2022/08/15 06:25:01;;;;;;;0.30;0.30;;;;;;;;;;5022111;28;20044;-77
2022/08/15 06:27:46;;;;;;;0.43;0.43;;;;;;;;;;5048034;28;20049;-76
2022/08/15 06:30:26;;;;;;;1.25;0.88;;;;;;;;;;5056841;28;20044;-76
2022/08/15 06:33:01;;;;;;;0.30;0.30;;;;;;;;;;5070680;28;20087;-76
2022/08/15 06:35:34;;;;;;;0.40;0.40;;;;;;;;;;5061061;28;20394;-76
2022/08/15 06:38:09;;;;;;;0.13;0.13;;;;;;;;;;5054267;28;20418;-76
2022/08/15 06:40:47;;;;;;;0.95;0.88;;;;;;;;;;5048202;28;20405;-76
2022/08/15 06:43:13;;;;;;;0.43;0.43;;;;;;;;;;5051855;28;20047;-76
2022/08/15 06:45:41;;;;;;;0.30;0.30;;;;;;;;;;5048689;28;20041;-76
2022/08/15 06:48:13;;;;;;;0.30;0.30;;;;;;;;;;5046608;28;20048;-76
2022/08/15 06:50:41;;;;;;;0.70;0.68;;;;;;;;;;5038724;28;20049;-76
2022/08/15 06:53:12;;;;;;;0.85;0.85;;;;;;;;;;5046595;28;20134;-76
2022/08/15 06:55:52;;;;;;;0.60;0.30;;;;;;;;;;5045110;28;20137;-76
2022/08/15 06:58:23;;;;;;;0.17;0.17;;;;;;;;;;5047645;28;20391;-76
2022/08/15 07:01:02;;;;;;;1.25;1.15;;;;;;;;;;5043742;28;20075;-76
2022/08/15 07:03:52;;;;;;;0.40;0.40;;;;;;;;;;5046334;28;20075;-76
2022/08/15 07:06:27;;;;;;;0.70;0.50;;;;;;;;;;5034429;28;20505;-76
2022/08/15 07:09:01;;;;;;;2.30;0.60;;;;;;;;;;5044642;28;20044;-76
2022/08/15 07:11:30;;;;;;;0.13;0.13;;;;;;;;;;5041233;28;20051;-76
2022/08/15 07:14:15;;;;;;;0.22;0.20;;;;;;;;;;5044922;28;20041;-76
2022/08/15 07:16:41;;;;;;;0.30;0.30;;;;;;;;;;5047474;28;20045;-75
2022/08/15 07:19:10;;;;;;;0.30;0.30;;;;;;;;;;5046281;28;20045;-76
2022/08/15 07:21:36;;;;;;;0.30;0.30;;;;;;;;;;5044583;28;20088;-76
2022/08/15 07:24:07;;;;;;;0.10;0.10;;;;;;;;;;5042380;28;20095;-76
2022/08/15 07:26:57;;;;;;;0.38;0.38;;;;;;;;;;5045698;28;20041;-75
2022/08/15 07:29:42;;;;;;;0.70;0.35;;;;;;;;;;5043232;28;20045;-76
2022/08/15 07:32:11;;;;;;;0.22;0.22;;;;;;;;;;5044496;28;20036;-76
2022/08/15 07:34:39;;;;;;;0.20;0.20;;;;;;;;;;5035663;28;20202;-76
2022/08/15 07:37:06;;;;;;;0.30;0.30;;;;;;;;;;5040603;28;20132;-76
2022/08/15 07:39:32;;;;;;;0.15;0.15;;;;;;;;;;5043790;28;20094;-76
2022/08/15 07:42:09;;;;;;;0.25;0.22;;;;;;;;;;5043402;28;20417;-76
2022/08/15 07:44:35;;;;;;;0.20;0.20;;;;;;;;;;5031514;28;20041;-76
2022/08/15 07:47:07;;;;;;;0.20;0.20;;;;;;;;;;5028529;28;20045;-76
2022/08/15 07:49:35;;;;;;;0.32;0.32;;;;;;;;;;5044968;28;20052;-76
2022/08/15 07:52:01;;;;;;;0.40;0.40;;;;;;;;;;5040872;28;20040;-77
2022/08/15 07:54:30;;;;;;;0.00;0.00;;;;;;;;;;5046913;28;20405;-76
2022/08/15 07:57:00;;;;;;;0.20;0.20;;;;;;;;;;5043677;28;20164;-73
2022/08/15 07:59:30;;;;;;;1.33;0.50;;;;;;;;;;5050497;28;20045;-73
2022/08/15 08:02:15;;;;;;;0.40;0.40;;;;;;;;;;5047892;28;20033;-72
2022/08/15 08:04:40;;;;;;;0.70;0.70;;;25.30;99.90;;;;;;5047176;28;20103;-71
2022/08/15 08:07:22;;;;;;;0.20;0.20;;;25.40;99.90;;;;;;5044194;28;20053;-72
2022/08/15 08:09:53;;;;;;;0.13;0.13;;;;;;;;;;5034670;28;20543;-72
2022/08/15 08:12:25;;;;;;;0.50;0.50;;;;;;;;;;5044446;28;20059;-72
2022/08/15 08:14:52;;;;;;;0.30;0.30;;;;;;;;;;5031811;28;20037;-72
2022/08/15 08:17:21;;;;;;;0.20;0.20;;;;;;;;;;5046734;28;20156;-71
2022/08/15 08:20:16;;;;;;;0.70;0.68;;;;;;;;;;5048089;28;20090;-71
2022/08/15 08:22:51;;;;;;;0.20;0.20;;;;;;;;;;5030504;28;20076;-71
2022/08/15 08:25:48;;;;;;;0.65;0.65;;;27.30;99.90;;;;;;5050947;28;20123;-71
2022/08/15 08:28:43;;;;;;;0.80;0.50;;;27.60;99.90;;;;;;5068131;28;20048;-71
2022/08/15 08:31:28;;;;;;;1.67;0.57;;;;;;;;;;5050909;28;20378;-71
2022/08/15 08:34:14;;;;;;;2.45;1.38;;;28.20;99.90;;;;;;5053103;28;20056;-72
2022/08/15 08:36:59;;;;;;;0.73;0.73;;;;;;;;;;5063744;28;20056;-70
2022/08/15 08:39:46;;;;;;;0.52;0.52;;;;;;;;;;5059093;28;20494;-71
2022/08/15 08:42:31;;;;;;;0.17;0.17;;;;;;;;;;5060988;28;20049;-72
2022/08/15 08:45:36;;;;;;;0.17;0.17;;;;;;;;;;5062121;28;20068;-72
2022/08/15 08:48:10;;;;;;;0.25;0.25;;;;;;;;;;5051814;28;20044;-71
2022/08/15 08:51:06;;;;;;;0.38;0.38;;;;;;;;;;5055206;28;20050;-71
2022/08/15 08:53:38;;;;;;;0.17;0.17;;;;;;;;;;5045942;28;20052;-71
2022/08/15 08:56:26;;;;;;;0.45;0.45;;;;;;;;;;5068483;28;20040;-70
2022/08/15 08:59:02;;;;;;;0.68;0.68;;;;;;;;;;5067136;28;20048;-71
2022/08/15 09:01:28;;;;;;;0.15;0.15;;;;;;;;;;5062709;28;20055;-72
2022/08/15 09:04:02;;;;;;;0.30;0.30;;;;;;;;;;5057194;28;20437;-70
2022/08/15 09:06:31;;;;;;;0.50;0.50;;;;;;;;;;5044727;28;20451;-70
2022/08/15 09:08:57;;;;;;;0.15;0.15;;;;;;;;;;5043696;28;20098;-72
2022/08/15 09:11:26;;;;;;;0.77;0.77;;;;;;;;;;5061564;28;20094;-71
2022/08/15 09:13:55;;;;;;;0.30;0.30;;;;;;;;;;5056989;28;20040;-71
2022/08/15 09:16:30;;;;;;;0.90;0.90;;;;;;;;;;5046078;28;20053;-70
2022/08/15 09:19:03;;;;;;;0.68;0.43;;;;;;;;;;5047967;28;20379;-72
2022/08/15 09:21:29;;;;;;;0.30;0.30;;;;;;;;;;5048462;28;20056;-73
2022/08/15 09:23:56;;;;;;;0.50;0.40;;;;;;;;;;5050108;28;20041;-72
2022/08/15 09:26:26;;;;;;;0.20;0.20;;;;;;;;;;5051421;28;20548;-72
2022/08/15 09:29:15;;;;;;;0.65;0.65;;;;;;;;;;5063455;28;20036;-72
2022/08/15 09:31:42;;;;;;;0.77;0.77;;;;;;;;;;5047703;28;20484;-71
2022/08/15 09:34:14;;;;;;;0.47;0.30;;;;;;;;;;5060917;28;20071;-71
2022/08/15 09:36:53;;;;;;;0.82;0.82;;;;;;;;;;5059965;28;20072;-71
2022/08/15 09:39:22;;;;;;;0.47;0.47;;;;;;;;;;5055290;28;20045;-74
2022/08/15 09:41:51;;;;;;;0.38;0.38;;;;;;;;;;5061973;28;20586;-73
2022/08/15 09:44:36;;;;;;;1.65;0.60;;;;;;;;;;5050304;28;20087;-73
2022/08/15 09:47:11;;;;;;;0.10;0.10;;;;;;;;;;5053356;28;20075;-74
2022/08/15 09:49:44;;;;;;;0.43;0.40;;;;;;;;;;5046877;28;20091;-73
2022/08/15 09:52:22;;;;;;;0.47;0.47;;;;;;;;;;5054363;28;20049;-73
2022/08/15 09:54:56;;;;;;;4.22;0.93;;;;;;;;;;5080740;28;20416;-73
2022/08/15 09:57:28;;;;;;;0.50;0.50;;;;;;;;;;5056323;28;20477;-72
2022/08/15 10:00:16;;;;;;;0.25;0.25;;;;;;;;;;5078128;28;20051;-72
2022/08/15 10:02:43;;;;;;;1.15;0.90;;;;;;;;;;5056388;28;20075;-73
2022/08/15 10:05:22;;;;;;;0.57;0.57;;;;;;;;;;5051955;28;20498;-74
2022/08/15 10:07:48;;;;;;;1.27;1.15;;;;;;;;;;5050762;28;20051;-71
2022/08/15 10:10:17;;;;;;;0.40;0.40;;;;;;;;;;5049106;28;20048;-73
2022/08/15 10:13:21;;;;;;;0.95;0.55;;;;;;;;;;5065652;28;20045;-74
2022/08/15 10:15:48;;;;;;;1.45;1.35;;;;;;;;;;5015452;28;20080;-73
2022/08/15 10:18:23;;;;;;;0.45;0.40;;;;;;;;;;5047107;28;20135;-73
2022/08/15 10:20:52;;;;;;;0.90;0.90;;;;;;;;;;5051403;28;20045;-74
2022/08/15 10:23:21;;;;;;;0.68;0.68;;;;;;;;;;5047771;28;20306;-73
2022/08/15 10:25:48;;;;;;;1.08;1.02;;;;;;;;;;5052525;28;20045;-73
2022/08/15 10:28:14;;;;;;;1.00;0.90;;;;;;;;;;5066016;28;20115;-73
2022/08/15 10:30:46;;;;;;;0.98;0.88;;;;;;;;;;5059257;28;20036;-73
2022/08/15 10:33:31;;;;;;;0.77;0.75;;;;;;;;;;5061835;28;20087;-72
2022/08/15 10:36:16;;;;;;;0.57;0.47;;;;;;;;;;5050139;28;20094;-74
2022/08/15 10:38:58;;;;;;;0.20;0.20;;;;;;;;;;5054869;28;20134;-73
2022/08/15 10:41:37;;;;;;;0.40;0.30;;;;;;;;;;5047939;28;20421;-73
2022/08/15 10:44:09;;;;;;;0.50;0.50;;;;;;;;;;5060400;28;20040;-73
2022/08/15 10:46:49;;;;;;;0.40;0.40;;;;;;;;;;5057055;28;20049;-72
2022/08/15 10:49:22;;;;;;;1.15;1.05;;;;;;;;;;5049407;28;20406;-73
2022/08/15 10:52:01;;;;;;;1.20;0.47;;;;;;;;;;5051305;28;20399;-73
2022/08/15 10:54:42;;;;;;;0.35;0.35;;;;;;;;;;5065638;28;20375;-72
2022/08/15 10:57:09;;;;;;;0.95;0.50;;;;;;;;;;5050663;28;20550;-73
2022/08/15 10:59:40;;;;;;;0.75;0.40;;;31.10;99.90;;;;;;5052740;28;20116;-72
2022/08/15 11:02:15;;;;;;;1.30;1.23;;;31.00;99.90;;;;;;5051681;28;20036;-71
2022/08/15 11:04:43;;;;;;;3.35;1.27;;;30.80;99.90;;;;;;5059729;28;20049;-72
2022/08/15 11:07:38;;;;;;;1.83;1.38;;;30.80;99.90;;;;;;5057885;28;20374;-72
2022/08/15 11:10:09;;;;;;;1.48;1.15;;;30.80;99.90;;;;;;5050314;28;20058;-72
2022/08/15 11:12:40;;;;;;;0.65;0.65;;;30.90;99.90;;;;;;5043505;28;20052;-73
2022/08/15 11:15:14;;;;;;;1.85;1.75;;;31.10;99.90;;;;;;5046162;28;20116;-73
2022/08/15 11:17:45;;;;;;;1.00;0.90;;;31.30;99.90;;;;;;5058033;28;20047;-73
2022/08/15 11:20:17;;;;;;;0.35;0.35;;;31.70;99.20;;;;;;5047588;28;20591;-72
2022/08/15 11:22:57;;;;;;;1.52;1.42;;;31.80;97.70;;;;;;5044940;28;20056;-72
2022/08/15 11:25:31;;;;;;;0.85;0.85;;;31.60;96.50;;;;;;5053449;28;20045;-73
2022/08/15 11:28:07;;;;;;;0.90;0.88;;;31.50;96.30;;;;;;5062380;28;20040;-73
2022/08/15 11:30:37;;;;;;;0.50;0.50;;;31.20;96.50;;;;;;5062949;28;20051;-73
2022/08/15 11:33:19;;;;;;;1.50;1.27;;;31.10;97.20;;;;;;5049168;28;20110;-72
2022/08/15 11:35:45;;;;;;;1.10;0.95;;;30.60;98.40;;;;;;5066319;28;20494;-72
2022/08/15 11:38:12;;;;;;;2.97;2.70;;;;;;;;;;5059624;28;20052;-72
2022/08/15 11:40:41;;;;;;;1.10;0.68;;;;;;;;;;5064602;28;20646;-73
2022/08/15 11:43:08;;;;;;;1.33;1.20;;;;;;;;;;5039450;28;20450;-73
2022/08/15 11:45:35;;;;;;;1.08;0.85;;;;;;;;;;5061044;28;20044;-75
2022/08/15 11:48:02;;;;;;;0.40;0.40;;;;;;;;;;5041847;28;20041;-73
2022/08/15 11:50:30;;;;;;;2.15;2.05;;;;;;;;;;5043143;28;20482;-73
2022/08/15 11:52:59;;;;;;;2.45;2.15;;;;;;;;;;5042615;28;20486;-73
2022/08/15 11:55:25;;;;;;;1.30;1.05;;;;;;;;;;5046191;28;20326;-71
2022/08/15 11:57:54;;;;;;;0.88;0.88;;;;;;;;;;5046737;28;20033;-74
2022/08/15 12:00:38;;;;;;;1.48;1.38;;;;;;;;;;5029878;28;20076;-74
2022/08/15 12:03:18;;;;;;;1.92;1.52;;;;;;;;;;5047847;28;20068;-73
2022/08/15 12:05:44;;;;;;;1.13;1.02;;;;;;;;;;5044426;28;20080;-74
2022/08/15 12:08:10;;;;;;;1.05;1.05;;;;;;;;;;5031296;28;20121;-72
2022/08/15 12:10:39;;;;;;;2.38;2.22;;;;;;;;;;5049282;28;20044;-73
2022/08/15 12:13:06;;;;;;;0.70;0.70;;;;;;;;;;5049159;28;20447;-73
2022/08/15 12:15:32;;;;;;;0.70;0.70;;;;;;;;;;5049788;28;20390;-75
2022/08/15 12:18:20;;;;;;;1.45;1.35;;;27.60;99.90;;;;;;5048724;28;20068;-73
2022/08/15 12:20:55;;;;;;;0.50;0.40;;;27.50;98.20;;;;;;5049112;28;20048;-73
2022/08/15 12:23:27;;;;;;;1.48;1.38;;;27.50;98.10;;;;;;5049478;28;20545;-73
2022/08/15 12:25:55;;;;;;;1.45;1.25;;;27.50;98.30;;;;;;5053612;28;20049;-73
2022/08/15 12:28:22;;;;;;;0.90;0.82;;;27.40;98.50;;;;;;5048373;28;20037;-73
2022/08/15 12:30:48;;;;;;;0.68;0.68;;;27.40;99.00;;;;;;5044182;28;20052;-72
2022/08/15 12:33:14;;;;;;;0.73;0.70;;;27.40;98.60;;;;;;5033007;28;20056;-73
2022/08/15 12:35:41;;;;;;;1.13;1.08;;;27.30;98.50;;;;;;5031332;28;20362;-74
2022/08/15 12:38:08;;;;;;;0.65;0.65;;;27.40;98.50;;;;;;5054138;28;20077;-73
2022/08/15 12:40:34;;;;;;;0.77;0.75;;;27.50;99.00;;;;;;5067413;28;20087;-72
2022/08/15 12:43:00;;;;;;;1.88;1.20;;;27.50;99.00;;;;;;5056394;28;20136;-73
2022/08/15 12:45:26;;;;;;;1.55;1.38;;;27.50;98.40;;;;;;5056313;28;20048;-72
2022/08/15 12:47:52;;;;;;;0.68;0.63;;;27.70;98.20;;;;;;5057584;28;20500;-73
2022/08/15 12:50:17;;;;;;;1.42;1.33;;;27.80;98.20;;;;;;5056624;28;20504;-73
2022/08/15 12:52:44;;;;;;;0.88;0.80;;;28.10;97.90;;;;;;5062840;28;20036;-73
2022/08/15 12:55:10;;;;;;;1.08;0.80;;;28.00;97.60;;;;;;5052156;28;20045;-72
2022/08/15 12:57:36;;;;;;;0.77;0.75;;;27.90;97.40;;;;;;5051302;28;20036;-73
2022/08/15 13:00:05;;;;;;;0.88;0.88;;;28.20;97.70;;;;;;5053954;28;20413;-73
2022/08/15 13:02:31;;;;;;;1.23;1.13;;;28.10;98.20;;;;;;5043255;28;20036;-73
2022/08/15 13:04:56;;;;;;;0.75;0.75;;;28.30;98.30;;;;;;5051212;28;20403;-73
2022/08/15 13:07:24;;;;;;;0.82;0.82;;;28.20;98.90;;;;;;5049978;28;20041;-73
2022/08/15 13:09:51;;;;;;;1.33;1.23;;;28.20;99.10;;;;;;5046503;28;20049;-73
2022/08/15 13:12:17;;;;;;;1.42;0.98;;;28.30;99.30;;;;;;5051363;28;20072;-72
2022/08/15 13:14:43;;;;;;;1.67;1.58;;;28.30;99.70;;;;;;5045579;28;20041;-74
2022/08/15 13:17:11;;;;;;;1.20;1.10;;;28.20;99.90;;;;;;5022602;28;20830;-72
2022/08/15 13:25:17;;;;;;;0.65;0.65;;;28.50;99.90;;;;;;5043291;28;20075;-73
2022/08/15 13:27:46;;;;;;;0.90;0.90;;;28.80;99.90;;;;;;5051518;28;20131;-73
2022/08/15 13:30:14;;;;;;;2.00;1.35;;;28.80;99.90;;;;;;5064289;28;20040;-73
2022/08/15 13:32:40;;;;;;;1.38;1.27;;;28.80;99.90;;;;;;5031575;28;20123;-73
2022/08/15 13:35:09;;;;;;;0.85;0.73;;;28.60;99.90;;;;;;5048108;28;20048;-74
2022/08/15 13:37:36;;;;;;;0.68;0.50;;;28.50;99.90;;;;;;5047254;28;20051;-73
2022/08/15 13:40:05;;;;;;;1.50;0.88;;;28.60;99.90;;;;;;5053877;28;20040;-72
2022/08/15 13:42:31;;;;;;;1.33;0.65;;;28.50;99.80;;;;;;5030517;28;20151;-73
2022/08/15 13:44:58;;;;;;;0.90;0.88;;;28.60;99.40;;;;;;5046379;28;20075;-72
2022/08/15 13:47:25;;;;;;;1.42;0.70;;;28.70;98.90;;;;;;5044291;28;20518;-72
2022/08/15 13:49:52;;;;;;;0.35;0.35;;;;;;;;;;5056989;28;20517;-73
2022/08/15 13:52:18;;;;;;;0.80;0.80;;;29.60;99.90;;;;;;5048331;28;20132;-72
2022/08/15 13:54:43;;;;;;;0.90;0.68;;;30.10;99.90;;;;;;5020455;28;20052;-73
2022/08/15 13:57:10;;;;;;;0.35;0.35;;;30.70;99.90;;;;;;5050753;28;20410;-74
2022/08/15 13:59:35;;;;;;;0.73;0.73;;;31.40;99.90;;;;;;5049919;28;20048;-73
2022/08/15 14:02:04;;;;;;;0.50;0.50;;;32.00;99.90;;;;;;5047967;28;20048;-73
2022/08/15 14:04:35;;;;;;;1.38;1.27;;;32.20;99.60;;;;;;5046789;28;20142;-72
2022/08/15 14:07:04;;;;;;;0.30;0.30;;;32.00;97.80;;;;;;5052210;28;20061;-72
2022/08/15 14:09:30;;;;;;;0.50;0.50;;;31.80;98.20;;;;;;5046322;28;20124;-74
2022/08/15 14:11:56;;;;;;;0.40;0.40;;;32.00;98.70;;;;;;5046457;28;20128;-73
2022/08/15 14:14:23;;;;;;;0.47;0.47;;;32.30;98.60;;;;;;5047876;28;20048;-72
2022/08/15 14:16:51;;;;;;;1.17;0.80;;;32.80;98.90;;;;;;5045584;28;20049;-72
2022/08/15 14:19:18;;;;;;;2.03;1.38;;;33.20;98.80;;;;;;5051289;28;20052;-72
2022/08/15 14:21:44;;;;;;;1.35;1.00;;;33.10;98.40;;;;;;5049717;28;20060;-73
2022/08/15 14:24:12;;;;;;;1.35;1.08;;;32.60;98.40;;;;;;5052427;28;20041;-73
2022/08/15 14:26:42;;;;;;;1.85;1.67;;;31.90;98.60;;;;;;5043670;28;20036;-72
2022/08/15 14:29:15;;;;;;;0.68;0.45;;;31.40;98.80;;;;;;5050260;28;20068;-73
2022/08/15 14:31:44;;;;;;;14.93;2.95;;;31.10;99.90;;;;;;5059101;28;20044;-73
2022/08/15 14:34:11;;;;;;;0.60;0.60;;;;;;;;;;5056835;28;20140;-73
2022/08/15 14:36:39;;;;;;;1.00;0.93;;;;;;;;;;5048906;28;20045;-72
2022/08/15 14:39:05;;;;;;;1.10;1.00;;;;;;;;;;5050925;28;20063;-72
2022/08/15 14:41:32;;;;;;;1.98;1.88;;;;;;;;;;5051077;28;20071;-73